sensor_id;sensor_type;location;lat;lon;timestamp;pressure;altitude;pressure_sealevel;temperature
78225;BMP280;67498;53.650;10.090;2023-02-04T00:00:14;102648.13;;;3.49
78225;BMP280;67498;53.650;10.090;2023-02-04T00:02:40;102653.69;;;3.42
78225;BMP280;67498;53.650;10.090;2023-02-04T00:05:06;102652.75;;;3.38
78225;BMP280;67498;53.650;10.090;2023-02-04T00:07:32;102661.06;;;3.35
78225;BMP280;67498;53.650;10.090;2023-02-04T00:09:57;102668.13;;;3.30
78225;BMP280;67498;53.650;10.090;2023-02-04T00:12:22;102672.47;;;3.20
78225;BMP280;67498;53.650;10.090;2023-02-04T00:14:47;102677.75;;;3.15
78225;BMP280;67498;53.650;10.090;2023-02-04T00:17:13;102679.44;;;3.06
78225;BMP280;67498;53.650;10.090;2023-02-04T00:19:41;102679.06;;;2.99
78225;BMP280;67498;53.650;10.090;2023-02-04T00:22:07;102675.09;;;2.93
78225;BMP280;67498;53.650;10.090;2023-02-04T00:24:36;102680.34;;;2.88
78225;BMP280;67498;53.650;10.090;2023-02-04T00:27:02;102691.22;;;2.85
78225;BMP280;67498;53.650;10.090;2023-02-04T00:29:28;102687.97;;;2.79
78225;BMP280;67498;53.650;10.090;2023-02-04T00:31:54;102705.84;;;2.75
78225;BMP280;67498;53.650;10.090;2023-02-04T00:34:19;102715.19;;;2.71
78225;BMP280;67498;53.650;10.090;2023-02-04T00:36:44;102720.13;;;2.68
78225;BMP280;67498;53.650;10.090;2023-02-04T00:39:10;102727.72;;;2.64
78225;BMP280;67498;53.650;10.090;2023-02-04T00:41:35;102725.97;;;2.59
78225;BMP280;67498;53.650;10.090;2023-02-04T00:44:00;102733.22;;;2.57
78225;BMP280;67498;53.650;10.090;2023-02-04T00:46:26;102739.22;;;2.53
78225;BMP280;67498;53.650;10.090;2023-02-04T00:48:51;102751.34;;;2.52
78225;BMP280;67498;53.650;10.090;2023-02-04T00:51:16;102757.28;;;2.53
78225;BMP280;67498;53.650;10.090;2023-02-04T00:53:42;102767.00;;;2.56
78225;BMP280;67498;53.650;10.090;2023-02-04T00:56:07;102777.06;;;2.57
78225;BMP280;67498;53.650;10.090;2023-02-04T00:58:32;102790.16;;;2.61
78225;BMP280;67498;53.650;10.090;2023-02-04T01:00:57;102790.81;;;2.67
78225;BMP280;67498;53.650;10.090;2023-02-04T01:03:23;102803.91;;;2.70
78225;BMP280;67498;53.650;10.090;2023-02-04T01:05:48;102807.66;;;2.64
78225;BMP280;67498;53.650;10.090;2023-02-04T01:08:13;102816.72;;;2.62
78225;BMP280;67498;53.650;10.090;2023-02-04T01:10:39;102823.94;;;2.59
78225;BMP280;67498;53.650;10.090;2023-02-04T01:13:04;102836.84;;;2.59
78225;BMP280;67498;53.650;10.090;2023-02-04T01:15:29;102834.03;;;2.56
78225;BMP280;67498;53.650;10.090;2023-02-04T01:17:55;102844.34;;;2.56
78225;BMP280;67498;53.650;10.090;2023-02-04T01:20:20;102844.34;;;2.56
78225;BMP280;67498;53.650;10.090;2023-02-04T01:22:45;102846.59;;;2.63
78225;BMP280;67498;53.650;10.090;2023-02-04T01:25:10;102863.50;;;2.69
78225;BMP280;67498;53.650;10.090;2023-02-04T01:27:36;102860.09;;;2.73
78225;BMP280;67498;53.650;10.090;2023-02-04T01:30:02;102869.28;;;2.79
78225;BMP280;67498;53.650;10.090;2023-02-04T01:32:28;102873.09;;;2.82
78225;BMP280;67498;53.650;10.090;2023-02-04T01:34:53;102877.50;;;2.81
78225;BMP280;67498;53.650;10.090;2023-02-04T01:37:18;102885.50;;;2.80
78225;BMP280;67498;53.650;10.090;2023-02-04T01:39:43;102892.97;;;2.81
78225;BMP280;67498;53.650;10.090;2023-02-04T01:42:09;102884.13;;;2.88
78225;BMP280;67498;53.650;10.090;2023-02-04T01:44:35;102892.06;;;2.91
78225;BMP280;67498;53.650;10.090;2023-02-04T01:47:00;102891.03;;;2.92
78225;BMP280;67498;53.650;10.090;2023-02-04T01:49:26;102900.03;;;2.95
78225;BMP280;67498;53.650;10.090;2023-02-04T01:51:51;102912.34;;;2.98
78225;BMP280;67498;53.650;10.090;2023-02-04T01:54:17;102914.34;;;3.01
78225;BMP280;67498;53.650;10.090;2023-02-04T01:56:44;102917.41;;;3.03
78225;BMP280;67498;53.650;10.090;2023-02-04T01:59:12;102911.22;;;3.04
78225;BMP280;67498;53.650;10.090;2023-02-04T02:01:46;102909.41;;;3.05
78225;BMP280;67498;53.650;10.090;2023-02-04T02:04:18;102918.97;;;3.04
78225;BMP280;67498;53.650;10.090;2023-02-04T02:06:52;102920.84;;;2.98
78225;BMP280;67498;53.650;10.090;2023-02-04T02:09:19;102926.88;;;2.94
78225;BMP280;67498;53.650;10.090;2023-02-04T02:11:44;102924.63;;;2.87
78225;BMP280;67498;53.650;10.090;2023-02-04T02:14:10;102926.78;;;2.80
78225;BMP280;67498;53.650;10.090;2023-02-04T02:16:36;102929.25;;;2.71
78225;BMP280;67498;53.650;10.090;2023-02-04T02:19:01;102936.59;;;2.64
78225;BMP280;67498;53.650;10.090;2023-02-04T02:21:37;102941.56;;;2.55
78225;BMP280;67498;53.650;10.090;2023-02-04T02:24:29;102941.44;;;2.47
78225;BMP280;67498;53.650;10.090;2023-02-04T02:26:56;102949.00;;;2.38
78225;BMP280;67498;53.650;10.090;2023-02-04T02:29:22;102957.09;;;2.31
78225;BMP280;67498;53.650;10.090;2023-02-04T02:31:48;102965.94;;;2.25
78225;BMP280;67498;53.650;10.090;2023-02-04T02:34:13;102968.06;;;2.18
78225;BMP280;67498;53.650;10.090;2023-02-04T02:36:39;102977.38;;;2.14
78225;BMP280;67498;53.650;10.090;2023-02-04T02:39:04;102978.19;;;2.09
78225;BMP280;67498;53.650;10.090;2023-02-04T02:41:29;102978.50;;;2.03
78225;BMP280;67498;53.650;10.090;2023-02-04T02:43:55;102987.34;;;1.97
78225;BMP280;67498;53.650;10.090;2023-02-04T02:46:21;102996.13;;;1.90
78225;BMP280;67498;53.650;10.090;2023-02-04T02:48:46;103007.53;;;1.84
78225;BMP280;67498;53.650;10.090;2023-02-04T02:51:11;103011.22;;;1.78
78225;BMP280;67498;53.650;10.090;2023-02-04T02:53:37;103009.69;;;1.72
78225;BMP280;67498;53.650;10.090;2023-02-04T02:56:02;103013.88;;;1.68
78225;BMP280;67498;53.650;10.090;2023-02-04T02:58:31;103024.72;;;1.60
78225;BMP280;67498;53.650;10.090;2023-02-04T03:00:58;103033.78;;;1.52
78225;BMP280;67498;53.650;10.090;2023-02-04T03:03:26;103028.41;;;1.43
78225;BMP280;67498;53.650;10.090;2023-02-04T03:05:55;103041.31;;;1.38
78225;BMP280;67498;53.650;10.090;2023-02-04T03:08:22;103045.00;;;1.32
78225;BMP280;67498;53.650;10.090;2023-02-04T03:10:47;103047.88;;;1.25
78225;BMP280;67498;53.650;10.090;2023-02-04T03:13:14;103060.00;;;1.20
78225;BMP280;67498;53.650;10.090;2023-02-04T03:15:41;103061.81;;;1.14
78225;BMP280;67498;53.650;10.090;2023-02-04T03:18:07;103063.63;;;1.09
78225;BMP280;67498;53.650;10.090;2023-02-04T03:20:33;103070.31;;;1.04
78225;BMP280;67498;53.650;10.090;2023-02-04T03:22:59;103074.44;;;1.00
78225;BMP280;67498;53.650;10.090;2023-02-04T03:25:24;103070.59;;;0.98
78225;BMP280;67498;53.650;10.090;2023-02-04T03:27:52;103079.09;;;0.93
78225;BMP280;67498;53.650;10.090;2023-02-04T03:30:21;103086.84;;;0.88
78225;BMP280;67498;53.650;10.090;2023-02-04T03:32:47;103104.59;;;0.84
78225;BMP280;67498;53.650;10.090;2023-02-04T03:35:12;103110.75;;;0.89
78225;BMP280;67498;53.650;10.090;2023-02-04T03:37:37;103109.72;;;0.95
78225;BMP280;67498;53.650;10.090;2023-02-04T03:40:03;103108.91;;;1.04
78225;BMP280;67498;53.650;10.090;2023-02-04T03:42:28;103113.53;;;1.13
78225;BMP280;67498;53.650;10.090;2023-02-04T03:44:54;103126.34;;;1.23
78225;BMP280;67498;53.650;10.090;2023-02-04T03:47:19;103147.44;;;1.30
78225;BMP280;67498;53.650;10.090;2023-02-04T03:49:44;103152.25;;;1.37
78225;BMP280;67498;53.650;10.090;2023-02-04T03:52:09;103158.91;;;1.43
78225;BMP280;67498;53.650;10.090;2023-02-04T03:54:35;103160.44;;;1.49
78225;BMP280;67498;53.650;10.090;2023-02-04T03:57:00;103169.16;;;1.53
78225;BMP280;67498;53.650;10.090;2023-02-04T03:59:25;103178.69;;;1.58
78225;BMP280;67498;53.650;10.090;2023-02-04T04:01:50;103188.97;;;1.63
78225;BMP280;67498;53.650;10.090;2023-02-04T04:04:17;103196.94;;;1.66
78225;BMP280;67498;53.650;10.090;2023-02-04T04:06:42;103187.66;;;1.70
78225;BMP280;67498;53.650;10.090;2023-02-04T04:09:07;103191.22;;;1.75
78225;BMP280;67498;53.650;10.090;2023-02-04T04:11:32;103195.84;;;1.78
78225;BMP280;67498;53.650;10.090;2023-02-04T04:13:58;103196.84;;;1.82
78225;BMP280;67498;53.650;10.090;2023-02-04T04:16:23;103196.59;;;1.83
78225;BMP280;67498;53.650;10.090;2023-02-04T04:18:48;103191.44;;;1.83
78225;BMP280;67498;53.650;10.090;2023-02-04T04:21:13;103198.13;;;1.84
78225;BMP280;67498;53.650;10.090;2023-02-04T04:23:39;103211.78;;;1.85
78225;BMP280;67498;53.650;10.090;2023-02-04T04:26:04;103210.25;;;1.84
78225;BMP280;67498;53.650;10.090;2023-02-04T04:28:29;103206.91;;;1.83
78225;BMP280;67498;53.650;10.090;2023-02-04T04:30:55;103208.44;;;1.84
78225;BMP280;67498;53.650;10.090;2023-02-04T04:33:20;103218.72;;;1.84
78225;BMP280;67498;53.650;10.090;2023-02-04T04:35:45;103217.72;;;1.85
78225;BMP280;67498;53.650;10.090;2023-02-04T04:38:10;103217.97;;;1.84
78225;BMP280;67498;53.650;10.090;2023-02-04T04:40:36;103227.00;;;1.81
78225;BMP280;67498;53.650;10.090;2023-02-04T04:43:01;103225.22;;;1.77
78225;BMP280;67498;53.650;10.090;2023-02-04T04:45:27;103227.28;;;1.75
78225;BMP280;67498;53.650;10.090;2023-02-04T04:47:53;103231.94;;;1.73
78225;BMP280;67498;53.650;10.090;2023-02-04T04:50:18;103240.44;;;1.73
78225;BMP280;67498;53.650;10.090;2023-02-04T04:52:43;103239.38;;;1.74
78225;BMP280;67498;53.650;10.090;2023-02-04T04:55:09;103240.41;;;1.78
78225;BMP280;67498;53.650;10.090;2023-02-04T04:57:34;103245.03;;;1.81
78225;BMP280;67498;53.650;10.090;2023-02-04T05:00:00;103243.22;;;1.82
78225;BMP280;67498;53.650;10.090;2023-02-04T05:02:25;103247.59;;;1.81
78225;BMP280;67498;53.650;10.090;2023-02-04T05:04:50;103256.63;;;1.79
78225;BMP280;67498;53.650;10.090;2023-02-04T05:07:15;103268.22;;;1.76
78225;BMP280;67498;53.650;10.090;2023-02-04T05:09:41;103262.84;;;1.67
78225;BMP280;67498;53.650;10.090;2023-02-04T05:12:06;103275.22;;;1.60
78225;BMP280;67498;53.650;10.090;2023-02-04T05:14:31;103275.75;;;1.52
78225;BMP280;67498;53.650;10.090;2023-02-04T05:16:57;103288.13;;;1.45
78225;BMP280;67498;53.650;10.090;2023-02-04T05:19:22;103303.06;;;1.38
78225;BMP280;67498;53.650;10.090;2023-02-04T05:21:47;103305.94;;;1.31
78225;BMP280;67498;53.650;10.090;2023-02-04T05:24:13;103301.31;;;1.23
78225;BMP280;67498;53.650;10.090;2023-02-04T05:26:38;103308.75;;;1.19
78225;BMP280;67498;53.650;10.090;2023-02-04T05:29:03;103308.00;;;1.14
78225;BMP280;67498;53.650;10.090;2023-02-04T05:31:28;103308.00;;;1.09
78225;BMP280;67498;53.650;10.090;2023-02-04T05:33:54;103309.03;;;1.02
78225;BMP280;67498;53.650;10.090;2023-02-04T05:36:19;103311.34;;;0.99
78225;BMP280;67498;53.650;10.090;2023-02-04T05:38:45;103317.78;;;0.96
78225;BMP280;67498;53.650;10.090;2023-02-04T05:41:10;103318.53;;;0.87
78225;BMP280;67498;53.650;10.090;2023-02-04T05:43:35;103330.38;;;0.82
78225;BMP280;67498;53.650;10.090;2023-02-04T05:46:01;103327.25;;;0.75
78225;BMP280;67498;53.650;10.090;2023-02-04T05:48:26;103329.56;;;0.72
78225;BMP280;67498;53.650;10.090;2023-02-04T05:50:51;103324.16;;;0.68
78225;BMP280;67498;53.650;10.090;2023-02-04T05:53:17;103332.13;;;0.67
78225;BMP280;67498;53.650;10.090;2023-02-04T05:55:42;103343.16;;;0.62
78225;BMP280;67498;53.650;10.090;2023-02-04T05:58:07;103345.47;;;0.58
78225;BMP280;67498;53.650;10.090;2023-02-04T06:00:33;103343.66;;;0.54
78225;BMP280;67498;53.650;10.090;2023-02-04T06:02:58;103341.59;;;0.51
78225;BMP280;67498;53.650;10.090;2023-02-04T06:05:23;103346.47;;;0.47
78225;BMP280;67498;53.650;10.090;2023-02-04T06:07:49;103352.34;;;0.42
78225;BMP280;67498;53.650;10.090;2023-02-04T06:10:14;103352.88;;;0.39
78225;BMP280;67498;53.650;10.090;2023-02-04T06:12:40;103351.06;;;0.35
78225;BMP280;67498;53.650;10.090;2023-02-04T06:15:05;103358.53;;;0.31
78225;BMP280;67498;53.650;10.090;2023-02-04T06:17:31;103371.84;;;0.28
78225;BMP280;67498;53.650;10.090;2023-02-04T06:19:56;103380.56;;;0.22
78225;BMP280;67498;53.650;10.090;2023-02-04T06:22:21;103385.44;;;0.18
78225;BMP280;67498;53.650;10.090;2023-02-04T06:24:48;103384.63;;;0.13
78225;BMP280;67498;53.650;10.090;2023-02-04T06:27:14;103388.72;;;0.09
78225;BMP280;67498;53.650;10.090;2023-02-04T06:29:42;103396.94;;;0.06
78225;BMP280;67498;53.650;10.090;2023-02-04T06:32:07;103405.13;;;0.03
78225;BMP280;67498;53.650;10.090;2023-02-04T06:34:33;103400.75;;;-0.02
78225;BMP280;67498;53.650;10.090;2023-02-04T06:36:58;103400.97;;;-0.04
78225;BMP280;67498;53.650;10.090;2023-02-04T06:39:23;103414.06;;;-0.05
78225;BMP280;67498;53.650;10.090;2023-02-04T06:41:48;103418.69;;;-0.07
78225;BMP280;67498;53.650;10.090;2023-02-04T06:44:14;103425.84;;;-0.09
78225;BMP280;67498;53.650;10.090;2023-02-04T06:46:39;103434.31;;;-0.09
78225;BMP280;67498;53.650;10.090;2023-02-04T06:49:04;103433.03;;;-0.11
78225;BMP280;67498;53.650;10.090;2023-02-04T06:51:30;103443.28;;;-0.11
78225;BMP280;67498;53.650;10.090;2023-02-04T06:53:55;103446.88;;;-0.12
78225;BMP280;67498;53.650;10.090;2023-02-04T06:56:20;103451.00;;;-0.11
78225;BMP280;67498;53.650;10.090;2023-02-04T06:58:45;103455.84;;;-0.15
78225;BMP280;67498;53.650;10.090;2023-02-04T07:01:11;103454.34;;;-0.11
78225;BMP280;67498;53.650;10.090;2023-02-04T07:03:36;103457.44;;;-0.09
78225;BMP280;67498;53.650;10.090;2023-02-04T07:06:01;103470.53;;;-0.05
78225;BMP280;67498;53.650;10.090;2023-02-04T07:08:26;103477.78;;;-0.02
78225;BMP280;67498;53.650;10.090;2023-02-04T07:10:52;103484.22;;;0.01
78225;BMP280;67498;53.650;10.090;2023-02-04T07:13:17;103485.75;;;0.02
78225;BMP280;67498;53.650;10.090;2023-02-04T07:15:42;103483.47;;;0.05
78225;BMP280;67498;53.650;10.090;2023-02-04T07:18:07;103492.72;;;0.06
78225;BMP280;67498;53.650;10.090;2023-02-04T07:20:33;103498.38;;;0.08
78225;BMP280;67498;53.650;10.090;2023-02-04T07:22:58;103495.06;;;0.08
78225;BMP280;67498;53.650;10.090;2023-02-04T07:25:23;103495.81;;;0.08
78225;BMP280;67498;53.650;10.090;2023-02-04T07:27:48;103493.25;;;0.08
78225;BMP280;67498;53.650;10.090;2023-02-04T07:30:14;103507.94;;;0.13
78225;BMP280;67498;53.650;10.090;2023-02-04T07:32:39;103515.38;;;0.14
78225;BMP280;67498;53.650;10.090;2023-02-04T07:35:05;103518.22;;;0.18
78225;BMP280;67498;53.650;10.090;2023-02-04T07:37:30;103517.72;;;0.21
78225;BMP280;67498;53.650;10.090;2023-02-04T07:39:55;103520.88;;;0.28
78225;BMP280;67498;53.650;10.090;2023-02-04T07:42:20;103526.31;;;0.32
78225;BMP280;67498;53.650;10.090;2023-02-04T07:44:46;103527.56;;;0.34
78225;BMP280;67498;53.650;10.090;2023-02-04T07:47:11;103527.59;;;0.39
78225;BMP280;67498;53.650;10.090;2023-02-04T07:49:37;103530.72;;;0.47
78225;BMP280;67498;53.650;10.090;2023-02-04T07:52:02;103536.66;;;0.52
78225;BMP280;67498;53.650;10.090;2023-02-04T07:54:27;103537.22;;;0.59
78225;BMP280;67498;53.650;10.090;2023-02-04T07:56:53;103542.94;;;0.67
78225;BMP280;67498;53.650;10.090;2023-02-04T07:59:18;103546.31;;;0.72
78225;BMP280;67498;53.650;10.090;2023-02-04T08:01:43;103547.63;;;0.75
78225;BMP280;67498;53.650;10.090;2023-02-04T08:04:08;103540.16;;;0.78
78225;BMP280;67498;53.650;10.090;2023-02-04T08:06:34;103537.88;;;0.82
78225;BMP280;67498;53.650;10.090;2023-02-04T08:08:59;103541.47;;;0.86
78225;BMP280;67498;53.650;10.090;2023-02-04T08:11:24;103546.94;;;0.95
78225;BMP280;67498;53.650;10.090;2023-02-04T08:13:51;103550.28;;;1.00
78225;BMP280;67498;53.650;10.090;2023-02-04T08:16:16;103555.97;;;1.02
78225;BMP280;67498;53.650;10.090;2023-02-04T08:18:41;103558.88;;;1.16
78225;BMP280;67498;53.650;10.090;2023-02-04T08:21:06;103553.75;;;1.26
78225;BMP280;67498;53.650;10.090;2023-02-04T08:23:32;103562.28;;;1.32
78225;BMP280;67498;53.650;10.090;2023-02-04T08:25:57;103558.16;;;1.41
78225;BMP280;67498;53.650;10.090;2023-02-04T08:28:24;103561.81;;;1.56
78225;BMP280;67498;53.650;10.090;2023-02-04T08:30:49;103570.06;;;1.68
78225;BMP280;67498;53.650;10.090;2023-02-04T08:33:14;103564.41;;;1.81
78225;BMP280;67498;53.650;10.090;2023-02-04T08:35:39;103563.38;;;1.92
78225;BMP280;67498;53.650;10.090;2023-02-04T08:38:05;103575.22;;;2.04
78225;BMP280;67498;53.650;10.090;2023-02-04T08:40:30;103578.31;;;2.21
78225;BMP280;67498;53.650;10.090;2023-02-04T08:42:55;103576.78;;;2.30
78225;BMP280;67498;53.650;10.090;2023-02-04T08:45:20;103580.13;;;2.26
78225;BMP280;67498;53.650;10.090;2023-02-04T08:47:46;103589.16;;;2.23
78225;BMP280;67498;53.650;10.090;2023-02-04T08:50:11;103573.41;;;2.25
78225;BMP280;67498;53.650;10.090;2023-02-04T08:52:37;103571.56;;;2.51
78225;BMP280;67498;53.650;10.090;2023-02-04T08:55:02;103578.69;;;2.74
78225;BMP280;67498;53.650;10.090;2023-02-04T08:57:28;103589.16;;;3.09
78225;BMP280;67498;53.650;10.090;2023-02-04T08:59:53;103592.09;;;3.36
78225;BMP280;67498;53.650;10.090;2023-02-04T09:02:18;103590.94;;;3.58
78225;BMP280;67498;53.650;10.090;2023-02-04T09:04:43;103601.03;;;3.94
78225;BMP280;67498;53.650;10.090;2023-02-04T09:07:09;103599.59;;;4.06
78225;BMP280;67498;53.650;10.090;2023-02-04T09:09:34;103608.09;;;4.12
78225;BMP280;67498;53.650;10.090;2023-02-04T09:11:59;103605.00;;;4.10
78225;BMP280;67498;53.650;10.090;2023-02-04T09:14:26;103605.47;;;4.17
78225;BMP280;67498;53.650;10.090;2023-02-04T09:16:51;103614.34;;;4.35
78225;BMP280;67498;53.650;10.090;2023-02-04T09:19:16;103618.09;;;4.48
78225;BMP280;67498;53.650;10.090;2023-02-04T09:21:48;103618.31;;;4.51
78225;BMP280;67498;53.650;10.090;2023-02-04T09:24:13;103630.28;;;4.66
78225;BMP280;67498;53.650;10.090;2023-02-04T09:26:38;103628.91;;;4.98
78225;BMP280;67498;53.650;10.090;2023-02-04T09:29:04;103638.22;;;5.37
78225;BMP280;67498;53.650;10.090;2023-02-04T09:31:29;103636.16;;;5.72
78225;BMP280;67498;53.650;10.090;2023-02-04T09:33:54;103638.38;;;5.78
78225;BMP280;67498;53.650;10.090;2023-02-04T09:36:19;103636.28;;;5.94
78225;BMP280;67498;53.650;10.090;2023-02-04T09:38:45;103646.84;;;6.58
78225;BMP280;67498;53.650;10.090;2023-02-04T09:41:11;103636.34;;;7.13
78225;BMP280;67498;53.650;10.090;2023-02-04T09:43:42;103645.66;;;7.59
78225;BMP280;67498;53.650;10.090;2023-02-04T09:46:17;103648.91;;;7.42
78225;BMP280;67498;53.650;10.090;2023-02-04T09:48:43;103641.06;;;7.11
78225;BMP280;67498;53.650;10.090;2023-02-04T09:51:11;103638.06;;;7.26
78225;BMP280;67498;53.650;10.090;2023-02-04T09:53:38;103646.31;;;7.42
78225;BMP280;67498;53.650;10.090;2023-02-04T09:56:04;103645.53;;;7.42
78225;BMP280;67498;53.650;10.090;2023-02-04T09:58:32;103644.75;;;7.41
78225;BMP280;67498;53.650;10.090;2023-02-04T10:01:04;103647.25;;;7.69
78225;BMP280;67498;53.650;10.090;2023-02-04T10:03:33;103656.53;;;7.92
78225;BMP280;67498;53.650;10.090;2023-02-04T10:05:59;103659.16;;;8.01
78225;BMP280;67498;53.650;10.090;2023-02-04T10:08:29;103658.38;;;7.92
78225;BMP280;67498;53.650;10.090;2023-02-04T10:10:55;103654.50;;;8.20
78225;BMP280;67498;53.650;10.090;2023-02-04T10:13:36;103663.50;;;8.80
78225;BMP280;67498;53.650;10.090;2023-02-04T10:16:11;103672.81;;;9.25
78225;BMP280;67498;53.650;10.090;2023-02-04T10:18:37;103670.16;;;9.51
78225;BMP280;67498;53.650;10.090;2023-02-04T10:21:13;103675.97;;;9.56
78225;BMP280;67498;53.650;10.090;2023-02-04T10:23:40;103678.09;;;9.72
78225;BMP280;67498;53.650;10.090;2023-02-04T10:26:10;103667.81;;;10.05
78225;BMP280;67498;53.650;10.090;2023-02-04T10:28:36;103670.78;;;10.24
78225;BMP280;67498;53.650;10.090;2023-02-04T10:31:02;103673.16;;;10.17
78225;BMP280;67498;53.650;10.090;2023-02-04T10:33:27;103665.47;;;10.12
78225;BMP280;67498;53.650;10.090;2023-02-04T10:35:54;103678.88;;;10.31
78225;BMP280;67498;53.650;10.090;2023-02-04T10:38:20;103686.16;;;10.47
78225;BMP280;67498;53.650;10.090;2023-02-04T10:40:46;103693.06;;;10.51
78225;BMP280;67498;53.650;10.090;2023-02-04T10:43:21;103685.28;;;10.13
78225;BMP280;67498;53.650;10.090;2023-02-04T10:45:58;103694.03;;;9.79
78225;BMP280;67498;53.650;10.090;2023-02-04T10:48:24;103689.97;;;9.99
78225;BMP280;67498;53.650;10.090;2023-02-04T10:50:49;103695.63;;;10.01
78225;BMP280;67498;53.650;10.090;2023-02-04T10:53:18;103697.66;;;9.95
78225;BMP280;67498;53.650;10.090;2023-02-04T10:56:03;103686.56;;;9.60
78225;BMP280;67498;53.650;10.090;2023-02-04T10:58:30;103696.13;;;9.04
78225;BMP280;67498;53.650;10.090;2023-02-04T11:00:56;103696.25;;;8.55
78225;BMP280;67498;53.650;10.090;2023-02-04T11:03:27;103699.19;;;8.14
78225;BMP280;67498;53.650;10.090;2023-02-04T11:05:58;103687.75;;;7.92
78225;BMP280;67498;53.650;10.090;2023-02-04T11:08:32;103697.47;;;7.78
78225;BMP280;67498;53.650;10.090;2023-02-04T11:11:02;103706.00;;;7.70
78225;BMP280;67498;53.650;10.090;2023-02-04T11:18:50;103712.94;;;7.02
78225;BMP280;67498;53.650;10.090;2023-02-04T11:21:41;103708.63;;;6.97
78225;BMP280;67498;53.650;10.090;2023-02-04T11:26:51;103708.84;;;6.87
78225;BMP280;67498;53.650;10.090;2023-02-04T11:29:31;103709.78;;;6.77
78225;BMP280;67498;53.650;10.090;2023-02-04T11:32:25;103704.78;;;6.67
78225;BMP280;67498;53.650;10.090;2023-02-04T11:34:50;103705.56;;;6.54
78225;BMP280;67498;53.650;10.090;2023-02-04T11:37:18;103703.38;;;6.47
78225;BMP280;67498;53.650;10.090;2023-02-04T11:39:52;103697.00;;;6.40
78225;BMP280;67498;53.650;10.090;2023-02-04T11:44:58;103703.41;;;6.28
78225;BMP280;67498;53.650;10.090;2023-02-04T11:47:25;103702.38;;;6.43
78225;BMP280;67498;53.650;10.090;2023-02-04T11:49:57;103700.84;;;6.70
78225;BMP280;67498;53.650;10.090;2023-02-04T11:52:23;103702.75;;;6.92
78225;BMP280;67498;53.650;10.090;2023-02-04T11:54:56;103703.09;;;7.13
78225;BMP280;67498;53.650;10.090;2023-02-04T11:57:21;103706.69;;;7.39
78225;BMP280;67498;53.650;10.090;2023-02-04T11:59:47;103713.94;;;7.51
78225;BMP280;67498;53.650;10.090;2023-02-04T12:02:18;103710.00;;;7.31
78225;BMP280;67498;53.650;10.090;2023-02-04T12:05:07;103715.72;;;7.05
78225;BMP280;67498;53.650;10.090;2023-02-04T12:07:33;103712.78;;;6.85
78225;BMP280;67498;53.650;10.090;2023-02-04T12:12:48;103719.41;;;6.63
78225;BMP280;67498;53.650;10.090;2023-02-04T12:15:19;103725.00;;;6.56
78225;BMP280;67498;53.650;10.090;2023-02-04T12:17:45;103725.47;;;6.45
78225;BMP280;67498;53.650;10.090;2023-02-04T12:20:12;103723.91;;;6.30
78225;BMP280;67498;53.650;10.090;2023-02-04T12:22:38;103725.41;;;6.17
78225;BMP280;67498;53.650;10.090;2023-02-04T12:25:03;103725.28;;;6.08
78225;BMP280;67498;53.650;10.090;2023-02-04T12:27:28;103724.41;;;5.99
78225;BMP280;67498;53.650;10.090;2023-02-04T12:29:53;103721.56;;;5.96
78225;BMP280;67498;53.650;10.090;2023-02-04T12:32:19;103724.56;;;5.89
78225;BMP280;67498;53.650;10.090;2023-02-04T12:34:44;103726.25;;;5.80
78225;BMP280;67498;53.650;10.090;2023-02-04T12:37:09;103725.47;;;5.79
78225;BMP280;67498;53.650;10.090;2023-02-04T12:39:34;103730.97;;;5.78
78225;BMP280;67498;53.650;10.090;2023-02-04T12:42:00;103723.09;;;5.83
78225;BMP280;67498;53.650;10.090;2023-02-04T12:44:25;103730.09;;;6.01
78225;BMP280;67498;53.650;10.090;2023-02-04T12:46:50;103733.69;;;6.19
78225;BMP280;67498;53.650;10.090;2023-02-04T12:49:16;103733.03;;;6.27
78225;BMP280;67498;53.650;10.090;2023-02-04T12:51:41;103736.13;;;6.29
78225;BMP280;67498;53.650;10.090;2023-02-04T12:54:06;103738.91;;;6.33
78225;BMP280;67498;53.650;10.090;2023-02-04T12:56:31;103735.06;;;6.30
78225;BMP280;67498;53.650;10.090;2023-02-04T12:58:57;103734.78;;;6.32
78225;BMP280;67498;53.650;10.090;2023-02-04T13:01:22;103737.38;;;6.32
78225;BMP280;67498;53.650;10.090;2023-02-04T13:03:47;103752.53;;;6.38
78225;BMP280;67498;53.650;10.090;2023-02-04T13:06:12;103753.53;;;6.43
78225;BMP280;67498;53.650;10.090;2023-02-04T13:08:38;103750.94;;;6.43
78225;BMP280;67498;53.650;10.090;2023-02-04T13:11:03;103749.94;;;6.38
78225;BMP280;67498;53.650;10.090;2023-02-04T13:13:28;103762.53;;;6.31
78225;BMP280;67498;53.650;10.090;2023-02-04T13:15:53;103761.34;;;6.24
78225;BMP280;67498;53.650;10.090;2023-02-04T13:18:19;103766.47;;;6.29
78225;BMP280;67498;53.650;10.090;2023-02-04T13:20:44;103767.19;;;6.34
78225;BMP280;67498;53.650;10.090;2023-02-04T13:23:10;103753.03;;;6.41
78225;BMP280;67498;53.650;10.090;2023-02-04T13:25:35;103749.03;;;6.48
78225;BMP280;67498;53.650;10.090;2023-02-04T13:28:00;103751.81;;;6.52
78225;BMP280;67498;53.650;10.090;2023-02-04T13:30:25;103749.47;;;6.50
78225;BMP280;67498;53.650;10.090;2023-02-04T13:32:51;103752.00;;;6.42
78225;BMP280;67498;53.650;10.090;2023-02-04T13:35:16;103755.06;;;6.30
78225;BMP280;67498;53.650;10.090;2023-02-04T13:37:43;103757.81;;;6.20
78225;BMP280;67498;53.650;10.090;2023-02-04T13:40:10;103748.94;;;6.07
78225;BMP280;67498;53.650;10.090;2023-02-04T13:42:35;103752.16;;;5.99
78225;BMP280;67498;53.650;10.090;2023-02-04T13:45:01;103752.03;;;5.90
78225;BMP280;67498;53.650;10.090;2023-02-04T13:47:26;103756.28;;;5.81
78225;BMP280;67498;53.650;10.090;2023-02-04T13:49:51;103755.19;;;5.68
78225;BMP280;67498;53.650;10.090;2023-02-04T13:52:17;103756.13;;;5.58
78225;BMP280;67498;53.650;10.090;2023-02-04T13:54:43;103760.34;;;5.49
78225;BMP280;67498;53.650;10.090;2023-02-04T13:57:09;103761.22;;;5.44
78225;BMP280;67498;53.650;10.090;2023-02-04T13:59:34;103762.28;;;5.43
78225;BMP280;67498;53.650;10.090;2023-02-04T14:02:00;103771.06;;;5.42
78225;BMP280;67498;53.650;10.090;2023-02-04T14:04:25;103763.63;;;5.36